METAR Data
IDs: Format: Raw Decoded Include TAF

Data at: 2048 UTC 17 Nov 2019

KSUS 171954Z 25005KT 10SM FEW120 12/01 A2990 RMK AO2 SLP129 T01170011
KSUS 171854Z 21006KT 10SM OVC120 11/01 A2993 RMK AO2 SLP139 T01110011
KSUS 171754Z 22005KT 6SM HZ CLR 11/01 A2996 RMK AO2 SLP151 T01060011 10106 20006 56030
KSUS 171654Z 22008KT 6SM HZ OVC130 08/01 A2999 RMK AO2 SLP162 T00830011
KSUS 171554Z VRB03KT 4SM HZ OVC120 07/02 A3001 RMK AO2 SLP170 T00670017
KSUS 171454Z 00000KT 4SM BR CLR 03/02 A3005 RMK AO2 SLP183 T00330017 55005
KSUS 171354Z 00000KT 4SM BR CLR 03/01 A3004 RMK AO2 SLP180 T00280011
KSUS 171254Z 00000KT 4SM BR CLR 01/00 A3005 RMK AO2 SLP183 T00110000
KSUS 171154Z 00000KT 4SM BR CLR 01/M01 A3007 RMK AO2 SLP188 T00061006 10011 21022 56018
KSUS 171054Z AUTO 00000KT 4SM BR CLR 01/M01 A3008 RMK AO2 SLP192 T00061006
KSUS 170954Z AUTO 12003KT 5SM BR CLR 00/M01 A3009 RMK AO2 SLP194 T00001011
KSUS 170854Z AUTO 00000KT 4SM BR CLR M01/M02 A3012 RMK AO2 SLP205 T10061017 56014
KSUS 170754Z AUTO 00000KT 5SM BR CLR M01/M03 A3012 RMK AO2 SLP206 T10111028
KSUS 170654Z AUTO 06004KT 5SM BR CLR M02/M03 A3013 RMK AO2 SLP209 T10171028
KSUS 170554Z AUTO 00000KT 5SM BR CLR M01/M02 A3016 RMK AO2 SLP220 T10061022 10050 21017 401001050 53001
KSUS 170454Z 00000KT 4SM BR CLR M02/M02 A3016 RMK AO2 SLP219 T10171022
KSUS 170354Z 00000KT 6SM BR CLR M01/M02 A3016 RMK AO2 SLP220 T10061017
KSUS 170254Z 00000KT 6SM BR CLR 00/M02 A3016 RMK AO2 SLP222 T00001017 58004
KSUS 170154Z 09003KT 8SM CLR 02/M01 A3017 RMK AO2 SLP226 T00171011
KSUS 170054Z 00000KT 8SM CLR 01/M01 A3018 RMK AO2 SLP228 T00111011
KSUS 162354Z 10003KT 10SM CLR 05/M01 A3017 RMK AO2 SLP225 T00501006 10100 20022 56013
KSUS 162254Z 11003KT 9SM CLR 05/01 A3018 RMK AO2 SLP228 T00500006
KSUS 162154Z 06005KT 10SM CLR 09/01 A3019 RMK AO2 SLP229 T00940011
KSUS 162054Z 03006KT 6SM HZ CLR 09/01 A3021 RMK AO2 SLP236 T00890011 56025
KSUS 161954Z 03005KT 6SM HZ CLR 09/01 A3023 RMK AO2 SLP244 T00890011
KSUS 161854Z 00000KT 10SM CLR 09/01 A3025 RMK AO2 SLP250 T00890006
KSUS 161754Z 06003KT 9SM CLR 08/01 A3029 RMK AO2 SLP262 T00780006 10083 21050 58022
KSUS 161654Z 08004KT 9SM CLR 07/00 A3032 RMK AO2 SLP275 T00670000
KSUS 161554Z 09007KT 9SM CLR 05/00 A3035 RMK AO2 SLP284 T00500000
KSUS 161454Z 00000KT 6SM BR CLR 01/M01 A3035 RMK AO2 SLP287 T00111011 58003
KSUS 161354Z 00000KT 6SM BR CLR M02/M03 A3037 RMK AO2 SLP293 T10221033
KSUS 161254Z 00000KT 7SM CLR M05/M06 A3036 RMK AO2 SLP291 T10501061
KSUS 161154Z 00000KT 10SM CLR M04/M06 A3036 RMK AO2 SLP291 T10441061 11028 21050 53006
KSUS 161054Z AUTO 00000KT 10SM CLR M04/M06 A3035 RMK AO2 SLP287 T10441056
KSUS 160954Z AUTO 00000KT 10SM CLR M04/M06 A3035 RMK AO2 SLP284 T10441056
KSUS 160854Z AUTO 00000KT 10SM CLR M04/M06 A3034 RMK AO2 SLP282 T10391056 56006